createdAt,value
2018-01-24T00:00:40.085Z,99611.59
2018-01-24T00:03:07.488Z,99605.14
2018-01-24T00:05:35.431Z,99597.66
2018-01-24T00:08:02.962Z,99591.61
2018-01-24T00:10:30.348Z,99588.52
2018-01-24T00:12:57.820Z,99587.58
2018-01-24T00:15:25.217Z,99589.55
2018-01-24T00:17:52.661Z,99599.77
2018-01-24T00:20:20.026Z,99597.94
2018-01-24T00:22:47.434Z,99590.88
2018-01-24T00:25:14.831Z,99588.09
2018-01-24T00:27:42.242Z,99593.52
2018-01-24T00:30:09.636Z,99599.09
2018-01-24T00:32:37.052Z,99604.13
2018-01-24T00:35:04.455Z,99603.10
2018-01-24T00:37:31.849Z,99605.70
2018-01-24T00:39:59.244Z,99602.90
2018-01-24T00:42:26.648Z,99604.37
2018-01-24T00:44:54.051Z,99604.17
2018-01-24T00:47:21.500Z,99596.94
2018-01-24T00:49:48.900Z,99595.56
2018-01-24T00:52:16.287Z,99586.84
2018-01-24T00:54:43.710Z,99588.01
2018-01-24T00:57:11.102Z,99583.86
2018-01-24T00:59:38.521Z,99579.61
2018-01-24T01:02:05.916Z,99590.03
2018-01-24T01:04:33.318Z,99577.50
2018-01-24T01:07:00.719Z,99570.92
2018-01-24T01:09:28.428Z,99574.53
2018-01-24T01:11:55.819Z,99568.86
2018-01-24T01:14:23.233Z,99570.08
2018-01-24T01:16:50.625Z,99568.53
2018-01-24T01:19:18.032Z,99564.25
2018-01-24T01:21:45.525Z,99560.88
2018-01-24T01:24:12.944Z,99563.89
2018-01-24T01:26:40.338Z,99563.34
2018-01-24T01:29:10.742Z,99564.45
2018-01-24T01:31:38.139Z,99563.84
2018-01-24T01:34:05.597Z,99563.64
2018-01-24T01:36:32.988Z,99565.31
2018-01-24T01:39:00.439Z,99565.82
2018-01-24T01:41:27.840Z,99569.78
2018-01-24T01:43:55.244Z,99575.48
2018-01-24T01:46:22.642Z,99570.38
2018-01-24T01:48:50.086Z,99567.25
2018-01-24T01:51:17.631Z,99560.63
2018-01-24T01:53:45.024Z,99564.89
2018-01-24T01:56:12.426Z,99567.42
2018-01-24T01:58:39.827Z,99568.81
2018-01-24T02:01:07.227Z,99558.35
2018-01-24T02:03:34.616Z,99562.77
2018-01-24T02:06:02.023Z,99556.06
2018-01-24T02:08:29.416Z,99547.67
2018-01-24T02:10:56.864Z,99548.73
2018-01-24T02:13:24.216Z,99549.01
2018-01-24T02:15:51.627Z,99545.95
2018-01-24T02:18:19.807Z,99542.58
2018-01-24T02:20:47.207Z,99542.03
2018-01-24T02:23:14.605Z,99540.48
2018-01-24T02:25:42.018Z,99544.50
2018-01-24T02:28:09.424Z,99551.08
2018-01-24T02:30:36.848Z,99555.19
2018-01-24T02:33:04.249Z,99551.93
2018-01-24T02:35:31.648Z,99558.59
2018-01-24T02:37:59.051Z,99555.95
2018-01-24T02:40:26.452Z,99550.41
2018-01-24T02:42:53.920Z,99551.14
2018-01-24T02:45:21.334Z,99547.09
2018-01-24T02:47:48.736Z,99547.94
2018-01-24T02:50:16.144Z,99543.58
2018-01-24T02:52:43.540Z,99550.77
2018-01-24T02:55:10.951Z,99546.03
2018-01-24T02:57:38.357Z,99546.52
2018-01-24T03:00:05.825Z,99542.67
2018-01-24T03:02:33.220Z,99530.78
2018-01-24T03:05:00.677Z,99525.55
2018-01-24T03:07:28.076Z,99530.66
2018-01-24T03:09:55.473Z,99530.35
2018-01-24T03:12:22.917Z,99528.62
2018-01-24T03:14:50.415Z,99536.44
2018-01-24T03:17:17.842Z,99539.63
2018-01-24T03:19:45.226Z,99539.54
2018-01-24T03:22:12.640Z,99546.33
2018-01-24T03:24:40.083Z,99550.04
2018-01-24T03:27:07.537Z,99545.96
2018-01-24T03:29:34.922Z,99548.31
2018-01-24T03:32:02.337Z,99537.78
2018-01-24T03:34:29.734Z,99535.59
2018-01-24T03:36:57.152Z,99543.41
2018-01-24T03:39:24.539Z,99537.53
2018-01-24T03:41:51.948Z,99530.61
2018-01-24T03:44:19.660Z,99535.64
2018-01-24T03:46:47.067Z,99534.84
2018-01-24T03:49:14.466Z,99541.19
2018-01-24T03:51:41.867Z,99531.12
2018-01-24T03:54:09.259Z,99539.80
2018-01-24T03:56:36.788Z,99539.88
2018-01-24T03:59:04.184Z,99547.61
2018-01-24T04:01:31.596Z,99538.71
2018-01-24T04:03:59.019Z,99537.67
2018-01-24T04:06:26.455Z,99536.77
2018-01-24T04:08:53.928Z,99539.31
2018-01-24T04:11:21.332Z,99535.45
2018-01-24T04:13:48.728Z,99540.27
2018-01-24T04:16:16.128Z,99537.75
2018-01-24T04:18:43.528Z,99533.23
2018-01-24T04:21:10.990Z,99536.71
2018-01-24T04:23:38.370Z,99533.38
2018-01-24T04:26:05.805Z,99539.38
2018-01-24T04:28:33.196Z,99537.36
2018-01-24T04:31:00.760Z,99534.81
2018-01-24T04:33:28.850Z,99529.70
2018-01-24T04:35:56.248Z,99535.15
2018-01-24T04:38:23.659Z,99538.81
2018-01-24T04:40:51.055Z,99530.63
2018-01-24T04:43:18.534Z,99536.77
2018-01-24T04:45:45.927Z,99539.72
2018-01-24T04:48:13.333Z,99540.62
2018-01-24T04:50:40.725Z,99541.56
2018-01-24T04:53:08.128Z,99533.53
2018-01-24T04:55:35.544Z,99526.50
2018-01-24T04:58:02.956Z,99535.98
2018-01-24T05:00:31.045Z,99530.25
2018-01-24T05:02:58.453Z,99526.41
2018-01-24T05:05:25.944Z,99523.16
2018-01-24T05:07:53.351Z,99523.62
2018-01-24T05:10:20.740Z,99522.95
2018-01-24T05:12:48.146Z,99530.09
2018-01-24T05:15:16.360Z,99534.05
2018-01-24T05:17:43.761Z,99536.14
2018-01-24T05:20:11.168Z,99536.56
2018-01-24T05:22:38.583Z,99536.71
2018-01-24T05:25:05.984Z,99539.78
2018-01-24T05:27:33.391Z,99538.81
2018-01-24T05:30:00.799Z,99541.28
2018-01-24T05:32:28.204Z,99540.77
2018-01-24T05:34:55.618Z,99544.89
2018-01-24T05:37:23.040Z,99544.84
2018-01-24T05:39:50.437Z,99539.02
2018-01-24T05:42:17.828Z,99544.78
2018-01-24T05:44:45.240Z,99543.94
2018-01-24T05:47:12.632Z,99538.89
2018-01-24T05:49:40.042Z,99532.22
2018-01-24T05:52:07.456Z,99539.09
2018-01-24T05:54:34.864Z,99542.38
2018-01-24T05:57:02.456Z,99538.72
2018-01-24T05:59:29.848Z,99538.19
2018-01-24T06:01:57.248Z,99532.77
2018-01-24T06:04:24.653Z,99528.67
2018-01-24T06:06:52.185Z,99526.13
2018-01-24T06:09:19.583Z,99531.86
2018-01-24T06:11:46.979Z,99523.88
2018-01-24T06:14:14.390Z,99520.05
2018-01-24T06:16:41.785Z,99521.35
2018-01-24T06:19:09.276Z,99526.41
2018-01-24T06:21:36.672Z,99519.96
2018-01-24T06:24:04.077Z,99518.88
2018-01-24T06:26:31.548Z,99517.77
2018-01-24T06:28:59.018Z,99525.58
2018-01-24T06:31:26.438Z,99524.95
2018-01-24T06:33:53.833Z,99520.18
2018-01-24T06:36:21.249Z,99517.38
2018-01-24T06:38:48.665Z,99515.16
2018-01-24T06:41:16.145Z,99519.47
2018-01-24T06:43:43.544Z,99521.05
2018-01-24T06:46:10.948Z,99515.56
2018-01-24T06:48:38.356Z,99520.84
2018-01-24T06:51:05.764Z,99523.24
2018-01-24T06:53:33.195Z,99527.13
2018-01-24T06:56:00.658Z,99526.78
2018-01-24T06:58:28.064Z,99525.92
2018-01-24T07:00:55.675Z,99521.91
2018-01-24T07:03:23.062Z,99521.02
2018-01-24T07:05:50.462Z,99515.95
2018-01-24T07:08:17.864Z,99512.73
2018-01-24T07:10:45.338Z,99517.85
2018-01-24T07:13:24.484Z,99512.39
2018-01-24T07:15:51.935Z,99514.98
2018-01-24T07:18:20.183Z,99505.19
2018-01-24T07:20:47.590Z,99510.98
2018-01-24T07:23:14.976Z,99500.08
2018-01-24T07:25:42.384Z,99495.83
2018-01-24T07:28:09.790Z,99489.23
2018-01-24T07:30:37.302Z,99489.44
2018-01-24T07:33:04.699Z,99495.06
2018-01-24T07:35:32.122Z,99493.49
2018-01-24T07:37:59.499Z,99489.03
2018-01-24T07:40:26.898Z,99491.58
2018-01-24T07:42:54.463Z,99485.88
2018-01-24T07:45:21.965Z,99484.66
2018-01-24T07:47:49.527Z,99484.15
2018-01-24T07:50:16.960Z,99485.45
2018-01-24T07:52:44.354Z,99481.88
2018-01-24T07:55:12.003Z,99480.20
2018-01-24T07:57:39.404Z,99480.73
2018-01-24T08:00:06.779Z,99476.45
2018-01-24T08:02:34.198Z,99467.72
2018-01-24T08:05:01.622Z,99471.77
2018-01-24T08:07:29.024Z,99464.78
2018-01-24T08:09:56.645Z,99460.91
2018-01-24T08:12:24.039Z,99470.08
2018-01-24T08:14:51.440Z,99464.80
2018-01-24T08:17:19.256Z,99466.21
2018-01-24T08:19:46.643Z,99468.59
2018-01-24T08:22:14.071Z,99467.72
2018-01-24T08:24:41.465Z,99463.38
2018-01-24T08:27:08.873Z,99461.78
2018-01-24T08:29:36.290Z,99460.28
2018-01-24T08:32:03.704Z,99465.53
2018-01-24T08:34:31.106Z,99461.37
2018-01-24T08:36:58.517Z,99462.48
2018-01-24T08:39:25.917Z,99461.04
2018-01-24T08:41:53.332Z,99464.97
2018-01-24T08:44:20.832Z,99458.39
2018-01-24T08:46:48.241Z,99463.30
2018-01-24T08:49:15.640Z,99452.20
2018-01-24T08:51:43.057Z,99458.09
2018-01-24T08:54:10.460Z,99466.78
2018-01-24T08:56:37.867Z,99462.11
2018-01-24T08:59:05.271Z,99463.18
2018-01-24T09:01:50.161Z,99460.11
2018-01-24T09:04:35.772Z,99458.13
2018-01-24T09:07:20.974Z,99457.24
2018-01-24T09:10:05.755Z,99458.69
2018-01-24T09:12:50.520Z,99450.70
2018-01-24T09:15:35.459Z,99456.09
2018-01-24T09:18:20.459Z,99452.86
2018-01-24T09:21:05.301Z,99449.92
2018-01-24T09:23:56.123Z,99449.52
2018-01-24T09:26:23.523Z,99449.30
2018-01-24T09:28:50.958Z,99454.77
2018-01-24T09:31:18.347Z,99456.69
2018-01-24T09:33:45.760Z,99446.73
2018-01-24T09:36:13.152Z,99446.17
2018-01-24T09:38:40.560Z,99451.48
2018-01-24T09:41:07.960Z,99451.19
2018-01-24T09:43:35.429Z,99444.51
2018-01-24T09:46:02.943Z,99449.20
2018-01-24T09:48:30.344Z,99449.51
2018-01-24T09:50:57.763Z,99443.61
2018-01-24T09:53:25.195Z,99441.94
2018-01-24T09:55:52.590Z,99436.16
2018-01-24T09:58:20.005Z,99431.70
2018-01-24T10:00:47.413Z,99438.25
2018-01-24T10:03:14.821Z,99435.89
2018-01-24T10:05:42.331Z,99430.19
2018-01-24T10:08:09.749Z,99433.80
2018-01-24T10:10:37.144Z,99429.16
2018-01-24T10:13:04.560Z,99420.64
2018-01-24T10:15:32.004Z,99427.95
2018-01-24T10:17:59.416Z,99425.23
2018-01-24T10:20:26.828Z,99427.31
2018-01-24T10:22:54.274Z,99422.05
2018-01-24T10:25:21.675Z,99429.30
2018-01-24T10:27:49.064Z,99413.92
2018-01-24T10:30:16.468Z,99414.39
2018-01-24T10:32:43.872Z,99405.69
2018-01-24T10:35:11.283Z,99403.55
2018-01-24T10:37:38.676Z,99405.27
2018-01-24T10:40:06.094Z,99405.00
2018-01-24T10:42:33.508Z,99398.52
2018-01-24T10:45:00.904Z,99400.39
2018-01-24T10:47:28.425Z,99397.13
2018-01-24T10:49:55.840Z,99396.22
2018-01-24T10:52:23.247Z,99395.30
2018-01-24T10:54:50.650Z,99392.00
2018-01-24T10:57:18.061Z,99391.84
2018-01-24T10:59:45.526Z,99385.30
2018-01-24T11:02:12.956Z,99379.73
2018-01-24T11:04:40.352Z,99373.09
2018-01-24T11:07:07.760Z,99371.22
2018-01-24T11:09:35.171Z,99362.91
2018-01-24T11:12:02.565Z,99359.29
2018-01-24T11:14:29.983Z,99358.27
2018-01-24T11:16:57.408Z,99354.55
2018-01-24T11:19:24.818Z,99350.91
2018-01-24T11:21:52.265Z,99352.10
2018-01-24T11:24:19.668Z,99345.84
2018-01-24T11:26:47.273Z,99339.55
2018-01-24T11:29:14.673Z,99340.69
2018-01-24T11:31:42.072Z,99338.23
2018-01-24T11:34:09.480Z,99342.20
2018-01-24T11:36:36.881Z,99329.06
2018-01-24T11:39:04.281Z,99327.94
2018-01-24T11:41:31.687Z,99326.61
2018-01-24T11:43:59.096Z,99319.59
2018-01-24T11:46:26.492Z,99323.35
2018-01-24T11:48:53.888Z,99314.23
2018-01-24T11:51:21.292Z,99315.05
2018-01-24T11:53:48.696Z,99310.80
2018-01-24T11:56:16.101Z,99309.17
2018-01-24T11:58:43.504Z,99310.25
2018-01-24T12:01:10.909Z,99305.39
2018-01-24T12:03:38.316Z,99303.42
2018-01-24T12:06:05.723Z,99299.91
2018-01-24T12:08:33.120Z,99294.56
2018-01-24T12:11:00.524Z,99284.59
2018-01-24T12:13:27.924Z,99277.90
2018-01-24T12:15:55.333Z,99273.97
2018-01-24T12:18:23.234Z,99272.72
2018-01-24T12:20:50.678Z,99254.98
2018-01-24T12:23:18.106Z,99259.95
2018-01-24T12:25:45.520Z,99265.23
2018-01-24T12:28:12.924Z,99259.35
2018-01-24T12:30:40.524Z,99248.69
2018-01-24T12:33:07.943Z,99244.53
2018-01-24T12:35:35.358Z,99235.45
2018-01-24T12:38:02.752Z,99229.45
2018-01-24T12:40:30.152Z,99234.05
2018-01-24T12:42:57.674Z,99224.16
2018-01-24T12:45:25.109Z,99219.64
2018-01-24T12:47:52.481Z,99210.63
2018-01-24T12:50:19.869Z,99202.05
2018-01-24T12:52:47.294Z,99202.30
2018-01-24T12:55:14.949Z,99194.67
2018-01-24T12:57:42.359Z,99192.69
2018-01-24T13:00:09.756Z,99191.13
2018-01-24T13:02:37.199Z,99190.95
2018-01-24T13:05:04.599Z,99188.36
2018-01-24T13:07:32.018Z,99189.31
2018-01-24T13:09:59.404Z,99180.20
2018-01-24T13:12:26.812Z,99174.00
2018-01-24T13:14:54.208Z,99165.73
2018-01-24T13:17:21.624Z,99158.43
2018-01-24T13:19:49.023Z,99155.78
2018-01-24T13:22:16.423Z,99152.78
2018-01-24T13:24:43.822Z,99143.59
2018-01-24T13:27:11.220Z,99145.95
2018-01-24T13:29:38.623Z,99144.00
2018-01-24T13:32:06.024Z,99133.05
2018-01-24T13:34:33.425Z,99133.29
2018-01-24T13:37:00.838Z,99136.20
2018-01-24T13:39:28.233Z,99129.73
2018-01-24T13:41:55.640Z,99121.16
2018-01-24T13:44:23.078Z,99121.28
2018-01-24T13:46:50.490Z,99119.78
2018-01-24T13:49:17.888Z,99112.53
2018-01-24T13:51:45.292Z,99109.34
2018-01-24T13:54:12.702Z,99105.98
2018-01-24T13:56:40.106Z,99103.41
2018-01-24T13:59:07.505Z,99105.77
2018-01-24T14:01:34.912Z,99104.92
2018-01-24T14:04:02.316Z,99101.64
2018-01-24T14:06:29.712Z,99099.20
2018-01-24T14:08:57.121Z,99089.89
2018-01-24T14:11:24.510Z,99095.16
2018-01-24T14:13:51.910Z,99095.50
2018-01-24T14:16:19.327Z,99089.98
2018-01-24T14:18:46.920Z,99089.70
2018-01-24T14:21:14.320Z,99080.53
2018-01-24T14:23:41.724Z,99074.33
2018-01-24T14:26:09.121Z,99068.00
2018-01-24T14:28:36.626Z,99063.53
2018-01-24T14:31:04.010Z,99064.92
2018-01-24T14:33:31.413Z,99060.72
2018-01-24T14:35:58.812Z,99061.67
2018-01-24T14:38:26.229Z,99072.54
2018-01-24T14:40:53.620Z,99061.37
2018-01-24T14:43:21.023Z,99057.03
2018-01-24T14:45:48.429Z,99052.27
2018-01-24T14:48:15.827Z,99048.30
2018-01-24T14:50:43.274Z,99042.32
2018-01-24T14:53:10.624Z,99046.47
2018-01-24T14:55:38.022Z,99039.22
2018-01-24T14:58:05.420Z,99031.75
2018-01-24T15:00:32.921Z,99024.55
2018-01-24T15:03:00.324Z,99030.24
2018-01-24T15:05:27.823Z,99015.40
2018-01-24T15:07:55.232Z,99015.88
2018-01-24T15:10:23.208Z,99022.17
2018-01-24T15:12:50.619Z,99017.67
2018-01-24T15:15:18.017Z,99010.54
2018-01-24T15:17:45.417Z,99015.84
2018-01-24T15:20:12.841Z,99022.42
2018-01-24T15:22:40.237Z,99021.10
2018-01-24T15:25:07.692Z,99017.91
2018-01-24T15:27:35.045Z,99012.45
2018-01-24T15:30:02.483Z,99004.58
2018-01-24T15:32:29.872Z,99002.79
2018-01-24T15:34:57.285Z,99002.98
2018-01-24T15:37:24.724Z,99002.27
2018-01-24T15:39:52.144Z,98997.59
2018-01-24T15:42:19.547Z,98994.01
2018-01-24T15:44:46.944Z,99002.09
2018-01-24T15:47:14.347Z,98998.69
2018-01-24T15:49:41.741Z,98996.77
2018-01-24T15:52:09.142Z,98987.11
2018-01-24T15:54:36.552Z,98983.21
2018-01-24T15:57:03.969Z,98982.34
2018-01-24T15:59:31.388Z,98976.30
2018-01-24T16:01:58.787Z,98977.11
2018-01-24T16:04:26.196Z,98970.36
2018-01-24T16:06:53.598Z,98976.97
2018-01-24T16:09:21.012Z,98969.39
2018-01-24T16:11:48.431Z,98967.02
2018-01-24T16:14:15.840Z,98952.67
2018-01-24T16:16:43.244Z,98958.13
2018-01-24T16:19:10.666Z,98953.94
2018-01-24T16:21:38.226Z,98957.37
2018-01-24T16:24:05.640Z,98947.80
2018-01-24T16:26:33.055Z,98946.53
2018-01-24T16:29:00.452Z,98949.17
2018-01-24T16:31:27.858Z,98946.65
2018-01-24T16:33:55.478Z,98938.25
2018-01-24T16:36:22.887Z,98943.69
2018-01-24T16:38:53.329Z,98938.59
2018-01-24T16:41:20.736Z,98932.92
2018-01-24T16:43:48.143Z,98931.17
2018-01-24T16:46:15.546Z,98926.50
2018-01-24T16:48:43.579Z,98927.37
2018-01-24T16:51:10.997Z,98922.58
2018-01-24T16:53:38.401Z,98926.82
2018-01-24T16:56:05.825Z,98921.05
2018-01-24T16:58:33.228Z,98918.64
2018-01-24T17:01:00.696Z,98914.47
2018-01-24T17:03:28.104Z,98918.33
2018-01-24T17:05:55.524Z,98921.69
2018-01-24T17:08:22.924Z,98912.91
2018-01-24T17:10:50.328Z,98913.97
2018-01-24T17:13:17.734Z,98905.20
2018-01-24T17:15:45.148Z,98907.74
2018-01-24T17:18:12.551Z,98907.73
2018-01-24T17:23:13.649Z,98907.48
2018-01-24T17:25:41.050Z,98906.46
2018-01-24T17:28:08.455Z,98906.17
2018-01-24T17:30:36.041Z,98892.89
2018-01-24T17:33:03.472Z,98907.91
2018-01-24T17:35:30.867Z,98905.02
2018-01-24T17:37:58.276Z,98905.90
2018-01-24T17:40:25.709Z,98902.78
2018-01-24T17:42:53.113Z,98903.03
2018-01-24T17:45:20.514Z,98903.92
2018-01-24T17:47:47.941Z,98906.55
2018-01-24T17:50:15.343Z,98904.09
2018-01-24T17:52:42.755Z,98902.18
2018-01-24T17:55:10.196Z,98898.66
2018-01-24T17:57:37.599Z,98896.75
2018-01-24T18:00:05.047Z,98891.41
2018-01-24T18:02:32.506Z,98889.16
2018-01-24T18:04:59.896Z,98886.84
2018-01-24T18:07:27.359Z,98891.08
2018-01-24T18:09:54.806Z,98891.55
2018-01-24T18:12:22.209Z,98890.48
2018-01-24T18:14:50.851Z,98892.02
2018-01-24T18:17:18.304Z,98894.30
2018-01-24T18:19:45.751Z,98885.48
2018-01-24T18:22:13.615Z,98885.19
2018-01-24T18:24:41.722Z,98879.87
2018-01-24T18:27:09.199Z,98878.41
2018-01-24T18:29:36.646Z,98880.98
2018-01-24T18:32:04.044Z,98859.78
2018-01-24T18:34:31.538Z,98857.95
2018-01-24T18:36:58.945Z,98874.24
2018-01-24T18:39:26.392Z,98880.81
2018-01-24T18:41:53.836Z,98877.88
2018-01-24T18:44:22.250Z,98875.20
2018-01-24T18:46:49.661Z,98879.05
2018-01-24T18:49:17.064Z,98874.32
2018-01-24T18:51:44.464Z,98879.20
2018-01-24T18:54:11.910Z,98887.73
2018-01-24T18:56:39.305Z,98888.50
2018-01-24T18:59:06.764Z,98890.48
2018-01-24T19:01:34.223Z,98893.87
2018-01-24T19:04:01.652Z,98882.52
2018-01-24T19:06:29.057Z,98884.88
2018-01-24T19:08:56.547Z,98889.38
2018-01-24T19:11:23.977Z,98880.98
2018-01-24T19:13:51.439Z,98880.48
2018-01-24T19:16:19.164Z,98874.91
2018-01-24T19:18:47.027Z,98872.65
2018-01-24T19:21:14.550Z,98871.08
2018-01-24T19:23:41.981Z,98871.91
2018-01-24T19:26:10.140Z,98865.76
2018-01-24T19:28:37.665Z,98864.61
2018-01-24T19:31:05.056Z,98864.00
2018-01-24T19:33:32.517Z,98857.72
2018-01-24T19:35:59.917Z,98853.95
2018-01-24T19:38:27.368Z,98854.99
2018-01-24T19:40:54.819Z,98859.35
2018-01-24T19:43:22.213Z,98858.93
2018-01-24T19:45:49.613Z,98862.92
2018-01-24T19:48:17.049Z,98857.30
2018-01-24T19:50:44.536Z,98863.59
2018-01-24T19:53:11.935Z,98857.78
2018-01-24T19:55:39.444Z,98860.48
2018-01-24T19:58:06.928Z,98858.41
2018-01-24T20:00:35.338Z,98858.00
2018-01-24T20:03:02.779Z,98853.75
2018-01-24T20:05:30.220Z,98864.13
2018-01-24T20:07:57.655Z,98863.39
2018-01-24T20:10:25.058Z,98855.91
2018-01-24T20:12:53.770Z,98866.94
2018-01-24T20:15:21.281Z,98861.64
2018-01-24T20:17:49.657Z,98860.15
2018-01-24T20:20:17.095Z,98858.17
2018-01-24T20:22:44.803Z,98862.67
2018-01-24T20:25:12.264Z,98864.10
2018-01-24T20:27:39.811Z,98866.16
2018-01-24T20:30:07.261Z,98869.65
2018-01-24T20:32:34.691Z,98869.88
2018-01-24T20:35:02.095Z,98873.40
2018-01-24T20:37:29.533Z,98869.29
2018-01-24T20:39:57.036Z,98858.07
2018-01-24T20:42:24.421Z,98861.39
2018-01-24T20:44:51.887Z,98859.37
2018-01-24T20:47:19.971Z,98865.76
2018-01-24T20:49:47.427Z,98864.23
2018-01-24T20:52:14.868Z,98868.17
2018-01-24T20:54:42.270Z,98868.95
2018-01-24T20:57:09.743Z,98866.63
2018-01-24T20:59:37.201Z,98863.86
2018-01-24T21:02:04.635Z,98866.16
2018-01-24T21:04:32.247Z,98872.94
2018-01-24T21:06:59.700Z,98876.77
2018-01-24T21:09:28.017Z,98879.90
2018-01-24T21:11:55.539Z,98881.58
2018-01-24T21:14:23.040Z,98883.94
2018-01-24T21:16:50.486Z,98876.81
2018-01-24T21:19:18.246Z,98877.18
2018-01-24T21:21:45.699Z,98868.72
2018-01-24T21:24:13.341Z,98880.22
2018-01-24T21:26:41.380Z,98880.52
2018-01-24T21:29:29.674Z,98871.31
2018-01-24T21:32:08.739Z,98868.43
2018-01-24T21:34:41.949Z,98872.89
2018-01-24T21:37:10.003Z,98872.05
2018-01-24T21:39:40.084Z,98877.78
2018-01-24T21:42:07.480Z,98874.34
2018-01-24T21:44:34.876Z,98877.08
2018-01-24T21:47:03.060Z,98877.38
2018-01-24T21:49:30.455Z,98871.70
2018-01-24T21:51:57.920Z,98879.34
2018-01-24T21:54:25.307Z,98875.16
2018-01-24T21:56:52.719Z,98878.95
2018-01-24T22:02:38.829Z,98881.71
2018-01-24T22:05:06.237Z,98879.17
2018-01-24T22:07:33.625Z,98876.11
2018-01-24T22:10:01.024Z,98875.21
2018-01-24T22:12:28.448Z,98879.92
2018-01-24T22:14:55.846Z,98872.81
2018-01-24T22:17:23.317Z,98875.63
2018-01-24T22:19:50.707Z,98878.06
2018-01-24T22:22:18.364Z,98876.17
2018-01-24T22:24:45.797Z,98868.73
2018-01-24T22:27:13.202Z,98868.80
2018-01-24T22:29:40.603Z,98869.34
2018-01-24T22:32:08.029Z,98869.25
2018-01-24T22:34:35.428Z,98872.71
2018-01-24T22:37:02.885Z,98876.55
2018-01-24T22:39:30.374Z,98873.64
2018-01-24T22:41:57.803Z,98880.57
2018-01-24T22:44:25.189Z,98883.28
2018-01-24T22:46:52.592Z,98884.56
2018-01-24T22:49:19.992Z,98886.41
2018-01-24T22:51:47.593Z,98891.41
2018-01-24T22:54:15.018Z,98891.92
2018-01-24T22:56:42.423Z,98894.80
2018-01-24T22:59:09.907Z,98894.19
2018-01-24T23:01:37.307Z,98898.58
2018-01-24T23:04:04.694Z,98898.32
2018-01-24T23:06:32.096Z,98892.09
2018-01-24T23:08:59.500Z,98897.16
2018-01-24T23:11:26.899Z,98885.70
2018-01-24T23:13:54.296Z,98887.89
2018-01-24T23:16:21.701Z,98892.62
2018-01-24T23:18:49.109Z,98890.36
2018-01-24T23:21:16.500Z,98889.00
2018-01-24T23:23:43.916Z,98890.69
2018-01-24T23:26:11.308Z,98894.54
2018-01-24T23:28:38.713Z,98896.91
2018-01-24T23:31:06.107Z,98895.98
2018-01-24T23:33:34.416Z,98896.85
2018-01-24T23:36:01.819Z,98898.97
2018-01-24T23:38:29.398Z,98892.52
2018-01-24T23:40:56.806Z,98889.38
2018-01-24T23:43:24.204Z,98884.40
2018-01-24T23:45:51.602Z,98879.32
2018-01-24T23:48:19.008Z,98871.50
2018-01-24T23:50:46.465Z,98881.67
2018-01-24T23:53:13.857Z,98879.17
2018-01-24T23:55:41.248Z,98883.09
2018-01-24T23:58:08.717Z,98876.20
